sensor_id;sensor_type;location;lat;lon;timestamp;P1;durP1;ratioP1;P2;durP2;ratioP2
66707;SDS011;53622;0.000;0.000;2023-08-17T00:00:07;5.65;;;2.00;;
66707;SDS011;53622;0.000;0.000;2023-08-17T00:02:38;3.67;;;1.77;;
66707;SDS011;53622;0.000;0.000;2023-08-17T00:05:07;2.95;;;1.85;;
66707;SDS011;53622;0.000;0.000;2023-08-17T00:07:37;2.47;;;2.17;;
66707;SDS011;53622;0.000;0.000;2023-08-17T00:10:06;5.65;;;2.20;;
66707;SDS011;53622;0.000;0.000;2023-08-17T00:12:37;4.55;;;2.35;;
66707;SDS011;53622;0.000;0.000;2023-08-17T00:15:07;3.08;;;2.20;;
66707;SDS011;53622;0.000;0.000;2023-08-17T00:17:37;3.45;;;2.15;;
66707;SDS011;53622;0.000;0.000;2023-08-17T00:20:07;2.20;;;1.88;;
66707;SDS011;53622;0.000;0.000;2023-08-17T00:22:37;2.22;;;1.70;;
66707;SDS011;53622;0.000;0.000;2023-08-17T00:25:06;3.60;;;2.20;;
66707;SDS011;53622;0.000;0.000;2023-08-17T00:27:37;3.67;;;2.20;;
66707;SDS011;53622;0.000;0.000;2023-08-17T00:30:07;2.97;;;1.90;;
66707;SDS011;53622;0.000;0.000;2023-08-17T00:32:37;2.58;;;1.80;;
66707;SDS011;53622;0.000;0.000;2023-08-17T00:35:06;3.75;;;1.90;;
66707;SDS011;53622;0.000;0.000;2023-08-17T00:37:36;3.65;;;2.10;;
66707;SDS011;53622;0.000;0.000;2023-08-17T00:40:06;3.35;;;2.33;;
66707;SDS011;53622;0.000;0.000;2023-08-17T00:42:37;3.78;;;2.13;;
66707;SDS011;53622;0.000;0.000;2023-08-17T00:45:07;4.53;;;1.95;;
66707;SDS011;53622;0.000;0.000;2023-08-17T00:47:37;2.67;;;2.00;;
66707;SDS011;53622;0.000;0.000;2023-08-17T00:50:06;4.43;;;1.95;;
66707;SDS011;53622;0.000;0.000;2023-08-17T00:52:36;3.38;;;2.08;;
66707;SDS011;53622;0.000;0.000;2023-08-17T00:55:07;2.10;;;1.90;;
66707;SDS011;53622;0.000;0.000;2023-08-17T00:57:39;3.97;;;2.28;;
66707;SDS011;53622;0.000;0.000;2023-08-17T01:00:11;3.78;;;2.03;;
66707;SDS011;53622;0.000;0.000;2023-08-17T01:02:45;3.85;;;2.35;;
66707;SDS011;53622;0.000;0.000;2023-08-17T01:05:16;4.95;;;2.22;;
66707;SDS011;53622;0.000;0.000;2023-08-17T01:07:47;3.30;;;1.90;;
66707;SDS011;53622;0.000;0.000;2023-08-17T01:10:16;3.15;;;2.05;;
66707;SDS011;53622;0.000;0.000;2023-08-17T01:12:48;4.55;;;2.40;;
66707;SDS011;53622;0.000;0.000;2023-08-17T01:15:30;2.55;;;2.00;;
66707;SDS011;53622;0.000;0.000;2023-08-17T01:18:04;5.55;;;2.42;;
66707;SDS011;53622;0.000;0.000;2023-08-17T01:20:39;3.70;;;1.83;;
66707;SDS011;53622;0.000;0.000;2023-08-17T01:23:10;2.53;;;1.85;;
66707;SDS011;53622;0.000;0.000;2023-08-17T01:25:40;2.15;;;1.95;;
66707;SDS011;53622;0.000;0.000;2023-08-17T01:28:09;2.60;;;1.92;;
66707;SDS011;53622;0.000;0.000;2023-08-17T01:30:39;3.95;;;2.30;;
66707;SDS011;53622;0.000;0.000;2023-08-17T01:33:13;4.95;;;2.22;;
66707;SDS011;53622;0.000;0.000;2023-08-17T01:35:54;3.67;;;2.25;;
66707;SDS011;53622;0.000;0.000;2023-08-17T01:38:29;4.15;;;2.53;;
66707;SDS011;53622;0.000;0.000;2023-08-17T01:41:00;6.28;;;2.70;;
66707;SDS011;53622;0.000;0.000;2023-08-17T01:43:32;4.38;;;2.22;;
66707;SDS011;53622;0.000;0.000;2023-08-17T01:46:02;5.45;;;2.42;;
66707;SDS011;53622;0.000;0.000;2023-08-17T01:48:31;4.75;;;2.55;;
66707;SDS011;53622;0.000;0.000;2023-08-17T01:51:03;4.03;;;2.58;;
66707;SDS011;53622;0.000;0.000;2023-08-17T01:53:34;3.70;;;2.50;;
66707;SDS011;53622;0.000;0.000;2023-08-17T01:56:04;4.65;;;2.65;;
66707;SDS011;53622;0.000;0.000;2023-08-17T01:58:33;4.78;;;2.70;;
66707;SDS011;53622;0.000;0.000;2023-08-17T02:01:02;3.42;;;2.17;;
66707;SDS011;53622;0.000;0.000;2023-08-17T02:03:32;4.45;;;2.63;;
66707;SDS011;53622;0.000;0.000;2023-08-17T02:06:01;3.83;;;2.42;;
66707;SDS011;53622;0.000;0.000;2023-08-17T02:08:32;7.00;;;2.78;;
66707;SDS011;53622;0.000;0.000;2023-08-17T02:11:04;3.15;;;2.10;;
66707;SDS011;53622;0.000;0.000;2023-08-17T02:13:33;4.38;;;2.50;;
66707;SDS011;53622;0.000;0.000;2023-08-17T02:16:04;5.80;;;2.35;;
66707;SDS011;53622;0.000;0.000;2023-08-17T02:18:33;2.38;;;2.13;;
66707;SDS011;53622;0.000;0.000;2023-08-17T02:21:03;3.33;;;2.45;;
66707;SDS011;53622;0.000;0.000;2023-08-17T02:23:32;6.32;;;2.70;;
66707;SDS011;53622;0.000;0.000;2023-08-17T02:26:03;6.05;;;2.78;;
66707;SDS011;53622;0.000;0.000;2023-08-17T02:28:32;4.43;;;2.42;;
66707;SDS011;53622;0.000;0.000;2023-08-17T02:31:01;5.05;;;2.08;;
66707;SDS011;53622;0.000;0.000;2023-08-17T02:33:31;2.72;;;2.15;;
66707;SDS011;53622;0.000;0.000;2023-08-17T02:36:00;6.10;;;2.30;;
66707;SDS011;53622;0.000;0.000;2023-08-17T02:38:30;7.60;;;2.55;;
66707;SDS011;53622;0.000;0.000;2023-08-17T02:40:59;5.57;;;2.70;;
66707;SDS011;53622;0.000;0.000;2023-08-17T02:43:30;5.05;;;2.42;;
66707;SDS011;53622;0.000;0.000;2023-08-17T02:45:59;2.30;;;2.10;;
66707;SDS011;53622;0.000;0.000;2023-08-17T02:48:29;2.58;;;2.10;;
66707;SDS011;53622;0.000;0.000;2023-08-17T02:50:59;5.28;;;2.50;;
66707;SDS011;53622;0.000;0.000;2023-08-17T02:53:28;5.10;;;2.20;;
66707;SDS011;53622;0.000;0.000;2023-08-17T02:55:58;3.78;;;2.20;;
66707;SDS011;53622;0.000;0.000;2023-08-17T02:58:27;6.10;;;2.42;;
66707;SDS011;53622;0.000;0.000;2023-08-17T03:00:58;4.30;;;2.35;;
66707;SDS011;53622;0.000;0.000;2023-08-17T03:03:31;3.08;;;2.50;;
66707;SDS011;53622;0.000;0.000;2023-08-17T03:06:00;3.58;;;2.30;;
66707;SDS011;53622;0.000;0.000;2023-08-17T03:08:30;5.40;;;2.80;;
66707;SDS011;53622;0.000;0.000;2023-08-17T03:11:00;2.78;;;2.00;;
66707;SDS011;53622;0.000;0.000;2023-08-17T03:13:30;6.22;;;2.50;;
66707;SDS011;53622;0.000;0.000;2023-08-17T03:16:00;2.80;;;2.10;;
66707;SDS011;53622;0.000;0.000;2023-08-17T03:18:29;4.95;;;2.30;;
66707;SDS011;53622;0.000;0.000;2023-08-17T03:20:59;5.28;;;2.00;;
66707;SDS011;53622;0.000;0.000;2023-08-17T03:23:28;2.65;;;2.00;;
66707;SDS011;53622;0.000;0.000;2023-08-17T03:25:57;3.60;;;2.20;;
66707;SDS011;53622;0.000;0.000;2023-08-17T03:28:27;3.03;;;2.05;;
66707;SDS011;53622;0.000;0.000;2023-08-17T03:30:57;5.93;;;2.25;;
66707;SDS011;53622;0.000;0.000;2023-08-17T03:33:27;4.57;;;2.38;;
66707;SDS011;53622;0.000;0.000;2023-08-17T03:35:56;4.13;;;2.30;;
66707;SDS011;53622;0.000;0.000;2023-08-17T03:38:26;4.95;;;2.42;;
66707;SDS011;53622;0.000;0.000;2023-08-17T03:40:56;8.15;;;2.60;;
66707;SDS011;53622;0.000;0.000;2023-08-17T03:43:25;5.90;;;3.00;;
66707;SDS011;53622;0.000;0.000;2023-08-17T03:45:55;8.45;;;2.70;;
66707;SDS011;53622;0.000;0.000;2023-08-17T03:48:25;8.80;;;2.65;;
66707;SDS011;53622;0.000;0.000;2023-08-17T03:50:55;7.03;;;2.83;;
66707;SDS011;53622;0.000;0.000;2023-08-17T03:53:24;8.57;;;2.80;;
66707;SDS011;53622;0.000;0.000;2023-08-17T03:55:53;6.65;;;2.80;;
66707;SDS011;53622;0.000;0.000;2023-08-17T03:58:23;6.15;;;2.17;;
66707;SDS011;53622;0.000;0.000;2023-08-17T04:00:54;5.07;;;2.40;;
66707;SDS011;53622;0.000;0.000;2023-08-17T04:03:28;7.50;;;2.60;;
66707;SDS011;53622;0.000;0.000;2023-08-17T04:06:03;6.50;;;2.17;;
66707;SDS011;53622;0.000;0.000;2023-08-17T04:08:34;6.53;;;2.30;;
66707;SDS011;53622;0.000;0.000;2023-08-17T04:11:03;3.90;;;2.42;;
66707;SDS011;53622;0.000;0.000;2023-08-17T04:13:33;3.83;;;2.35;;
66707;SDS011;53622;0.000;0.000;2023-08-17T04:16:02;5.05;;;2.33;;
66707;SDS011;53622;0.000;0.000;2023-08-17T04:18:33;4.80;;;2.38;;
66707;SDS011;53622;0.000;0.000;2023-08-17T04:21:02;4.38;;;2.28;;
66707;SDS011;53622;0.000;0.000;2023-08-17T04:23:31;5.95;;;2.40;;
66707;SDS011;53622;0.000;0.000;2023-08-17T04:26:01;4.50;;;2.20;;
66707;SDS011;53622;0.000;0.000;2023-08-17T04:28:30;6.60;;;2.10;;
66707;SDS011;53622;0.000;0.000;2023-08-17T04:30:59;4.25;;;2.28;;
66707;SDS011;53622;0.000;0.000;2023-08-17T04:33:35;4.63;;;2.28;;
66707;SDS011;53622;0.000;0.000;2023-08-17T04:36:04;5.88;;;2.10;;
66707;SDS011;53622;0.000;0.000;2023-08-17T04:38:33;4.40;;;2.35;;
66707;SDS011;53622;0.000;0.000;2023-08-17T04:41:03;6.40;;;2.35;;
66707;SDS011;53622;0.000;0.000;2023-08-17T04:43:33;3.30;;;2.17;;
66707;SDS011;53622;0.000;0.000;2023-08-17T04:46:03;6.53;;;2.13;;
66707;SDS011;53622;0.000;0.000;2023-08-17T04:48:32;5.40;;;2.20;;
66707;SDS011;53622;0.000;0.000;2023-08-17T04:51:03;5.75;;;2.40;;
66707;SDS011;53622;0.000;0.000;2023-08-17T04:53:32;3.90;;;2.20;;
66707;SDS011;53622;0.000;0.000;2023-08-17T04:56:02;5.65;;;2.53;;
66707;SDS011;53622;0.000;0.000;2023-08-17T04:58:32;3.78;;;2.33;;
66707;SDS011;53622;0.000;0.000;2023-08-17T05:01:01;4.60;;;2.28;;
66707;SDS011;53622;0.000;0.000;2023-08-17T05:03:31;7.68;;;2.70;;
66707;SDS011;53622;0.000;0.000;2023-08-17T05:06:04;5.88;;;2.22;;
66707;SDS011;53622;0.000;0.000;2023-08-17T05:08:33;5.75;;;2.40;;
66707;SDS011;53622;0.000;0.000;2023-08-17T05:11:03;5.88;;;2.20;;
66707;SDS011;53622;0.000;0.000;2023-08-17T05:13:32;5.22;;;1.95;;
66707;SDS011;53622;0.000;0.000;2023-08-17T05:16:04;2.90;;;2.45;;
66707;SDS011;53622;0.000;0.000;2023-08-17T05:18:34;4.57;;;2.30;;
66707;SDS011;53622;0.000;0.000;2023-08-17T05:21:05;3.50;;;2.33;;
66707;SDS011;53622;0.000;0.000;2023-08-17T05:23:35;3.65;;;2.38;;
66707;SDS011;53622;0.000;0.000;2023-08-17T05:26:04;2.97;;;2.20;;
66707;SDS011;53622;0.000;0.000;2023-08-17T05:28:33;3.35;;;2.13;;
66707;SDS011;53622;0.000;0.000;2023-08-17T05:31:04;7.32;;;2.45;;
66707;SDS011;53622;0.000;0.000;2023-08-17T05:33:37;4.28;;;2.47;;
66707;SDS011;53622;0.000;0.000;2023-08-17T05:36:09;5.38;;;2.78;;
66707;SDS011;53622;0.000;0.000;2023-08-17T05:38:41;4.28;;;2.85;;
66707;SDS011;53622;0.000;0.000;2023-08-17T05:41:10;5.07;;;2.40;;
66707;SDS011;53622;0.000;0.000;2023-08-17T05:43:39;4.97;;;2.42;;
66707;SDS011;53622;0.000;0.000;2023-08-17T05:46:09;6.07;;;2.63;;
66707;SDS011;53622;0.000;0.000;2023-08-17T05:48:38;4.22;;;2.60;;
66707;SDS011;53622;0.000;0.000;2023-08-17T05:51:09;3.95;;;2.72;;
66707;SDS011;53622;0.000;0.000;2023-08-17T05:53:39;6.03;;;2.83;;
66707;SDS011;53622;0.000;0.000;2023-08-17T05:56:08;10.98;;;3.10;;
66707;SDS011;53622;0.000;0.000;2023-08-17T05:58:38;9.18;;;2.92;;
66707;SDS011;53622;0.000;0.000;2023-08-17T06:01:08;6.50;;;2.70;;
66707;SDS011;53622;0.000;0.000;2023-08-17T06:03:39;5.18;;;2.83;;
66707;SDS011;53622;0.000;0.000;2023-08-17T06:06:11;6.82;;;2.83;;
66707;SDS011;53622;0.000;0.000;2023-08-17T06:08:40;8.88;;;2.60;;
66707;SDS011;53622;0.000;0.000;2023-08-17T06:11:10;5.35;;;2.63;;
66707;SDS011;53622;0.000;0.000;2023-08-17T06:13:39;5.55;;;2.85;;
66707;SDS011;53622;0.000;0.000;2023-08-17T06:16:09;5.35;;;2.80;;
66707;SDS011;53622;0.000;0.000;2023-08-17T06:18:39;7.35;;;2.90;;
66707;SDS011;53622;0.000;0.000;2023-08-17T06:21:08;4.88;;;2.63;;
66707;SDS011;53622;0.000;0.000;2023-08-17T06:23:39;4.22;;;2.97;;
66707;SDS011;53622;0.000;0.000;2023-08-17T06:26:08;5.00;;;2.33;;
66707;SDS011;53622;0.000;0.000;2023-08-17T06:28:38;8.35;;;3.00;;
66707;SDS011;53622;0.000;0.000;2023-08-17T06:31:07;8.88;;;3.05;;
66707;SDS011;53622;0.000;0.000;2023-08-17T06:33:36;6.18;;;3.15;;
66707;SDS011;53622;0.000;0.000;2023-08-17T06:36:05;6.15;;;2.88;;
66707;SDS011;53622;0.000;0.000;2023-08-17T06:38:36;4.60;;;2.60;;
66707;SDS011;53622;0.000;0.000;2023-08-17T06:41:05;6.28;;;3.05;;
66707;SDS011;53622;0.000;0.000;2023-08-17T06:43:35;4.85;;;2.85;;
66707;SDS011;53622;0.000;0.000;2023-08-17T06:46:04;5.60;;;2.58;;
66707;SDS011;53622;0.000;0.000;2023-08-17T06:48:33;5.28;;;2.65;;
66707;SDS011;53622;0.000;0.000;2023-08-17T06:51:03;4.55;;;2.88;;
66707;SDS011;53622;0.000;0.000;2023-08-17T06:53:32;4.45;;;2.67;;
66707;SDS011;53622;0.000;0.000;2023-08-17T06:56:03;6.25;;;2.92;;
66707;SDS011;53622;0.000;0.000;2023-08-17T06:58:32;8.10;;;3.20;;
66707;SDS011;53622;0.000;0.000;2023-08-17T07:01:01;6.13;;;2.67;;
66707;SDS011;53622;0.000;0.000;2023-08-17T07:03:30;5.55;;;3.05;;
66707;SDS011;53622;0.000;0.000;2023-08-17T07:06:00;4.85;;;3.03;;
66707;SDS011;53622;0.000;0.000;2023-08-17T07:08:29;3.92;;;2.80;;
66707;SDS011;53622;0.000;0.000;2023-08-17T07:11:00;7.22;;;3.13;;
66707;SDS011;53622;0.000;0.000;2023-08-17T07:13:32;7.75;;;3.25;;
66707;SDS011;53622;0.000;0.000;2023-08-17T07:16:01;3.78;;;2.70;;
66707;SDS011;53622;0.000;0.000;2023-08-17T07:18:31;5.90;;;2.97;;
66707;SDS011;53622;0.000;0.000;2023-08-17T07:21:00;4.80;;;3.05;;
66707;SDS011;53622;0.000;0.000;2023-08-17T07:23:29;5.90;;;4.05;;
66707;SDS011;53622;0.000;0.000;2023-08-17T07:25:59;7.88;;;4.32;;
66707;SDS011;53622;0.000;0.000;2023-08-17T07:28:28;9.05;;;4.20;;
66707;SDS011;53622;0.000;0.000;2023-08-17T07:30:59;9.98;;;3.97;;
66707;SDS011;53622;0.000;0.000;2023-08-17T07:33:28;8.20;;;4.00;;
66707;SDS011;53622;0.000;0.000;2023-08-17T07:35:57;5.45;;;3.70;;
66707;SDS011;53622;0.000;0.000;2023-08-17T07:38:27;12.18;;;3.63;;
66707;SDS011;53622;0.000;0.000;2023-08-17T07:40:56;7.13;;;4.13;;
66707;SDS011;53622;0.000;0.000;2023-08-17T07:43:26;13.38;;;4.05;;
66707;SDS011;53622;0.000;0.000;2023-08-17T07:45:56;9.85;;;3.90;;
66707;SDS011;53622;0.000;0.000;2023-08-17T07:48:27;12.35;;;4.60;;
66707;SDS011;53622;0.000;0.000;2023-08-17T07:51:00;13.93;;;4.13;;
66707;SDS011;53622;0.000;0.000;2023-08-17T07:53:30;9.90;;;3.95;;
66707;SDS011;53622;0.000;0.000;2023-08-17T07:55:59;12.52;;;4.20;;
66707;SDS011;53622;0.000;0.000;2023-08-17T07:58:28;10.77;;;3.75;;
66707;SDS011;53622;0.000;0.000;2023-08-17T08:00:57;10.20;;;4.32;;
66707;SDS011;53622;0.000;0.000;2023-08-17T08:03:31;10.07;;;4.10;;
66707;SDS011;53622;0.000;0.000;2023-08-17T08:06:00;10.68;;;4.28;;
66707;SDS011;53622;0.000;0.000;2023-08-17T08:08:29;12.70;;;4.88;;
66707;SDS011;53622;0.000;0.000;2023-08-17T08:10:59;19.60;;;5.65;;
66707;SDS011;53622;0.000;0.000;2023-08-17T08:13:28;19.65;;;6.07;;
66707;SDS011;53622;0.000;0.000;2023-08-17T08:15:58;13.68;;;5.78;;
66707;SDS011;53622;0.000;0.000;2023-08-17T08:18:28;25.42;;;6.75;;
66707;SDS011;53622;0.000;0.000;2023-08-17T08:20:58;18.42;;;6.13;;
66707;SDS011;53622;0.000;0.000;2023-08-17T08:23:28;19.08;;;6.20;;
66707;SDS011;53622;0.000;0.000;2023-08-17T08:25:57;24.13;;;6.38;;
66707;SDS011;53622;0.000;0.000;2023-08-17T08:28:27;17.73;;;5.90;;
66707;SDS011;53622;0.000;0.000;2023-08-17T08:31:00;15.27;;;5.60;;
66707;SDS011;53622;0.000;0.000;2023-08-17T08:33:31;17.77;;;5.15;;
66707;SDS011;53622;0.000;0.000;2023-08-17T08:36:02;15.02;;;5.10;;
66707;SDS011;53622;0.000;0.000;2023-08-17T08:38:33;13.25;;;4.97;;
66707;SDS011;53622;0.000;0.000;2023-08-17T08:41:02;13.95;;;5.00;;
66707;SDS011;53622;0.000;0.000;2023-08-17T08:43:31;9.80;;;4.30;;
66707;SDS011;53622;0.000;0.000;2023-08-17T08:46:01;13.00;;;4.82;;
66707;SDS011;53622;0.000;0.000;2023-08-17T08:48:31;10.02;;;5.13;;
66707;SDS011;53622;0.000;0.000;2023-08-17T08:51:02;10.43;;;4.65;;
66707;SDS011;53622;0.000;0.000;2023-08-17T08:53:37;13.43;;;4.55;;
66707;SDS011;53622;0.000;0.000;2023-08-17T08:56:07;11.60;;;4.75;;
66707;SDS011;53622;0.000;0.000;2023-08-17T08:58:40;14.15;;;4.32;;
66707;SDS011;53622;0.000;0.000;2023-08-17T09:01:10;9.23;;;4.50;;
66707;SDS011;53622;0.000;0.000;2023-08-17T09:03:41;11.13;;;4.47;;
66707;SDS011;53622;0.000;0.000;2023-08-17T09:06:12;7.78;;;3.33;;
66707;SDS011;53622;0.000;0.000;2023-08-17T09:08:43;10.48;;;3.67;;
66707;SDS011;53622;0.000;0.000;2023-08-17T09:11:13;12.35;;;4.43;;
66707;SDS011;53622;0.000;0.000;2023-08-17T09:13:42;13.45;;;4.15;;
66707;SDS011;53622;0.000;0.000;2023-08-17T09:16:12;8.93;;;3.78;;
66707;SDS011;53622;0.000;0.000;2023-08-17T09:18:42;9.38;;;3.80;;
66707;SDS011;53622;0.000;0.000;2023-08-17T09:21:20;12.63;;;3.80;;
66707;SDS011;53622;0.000;0.000;2023-08-17T09:23:51;28.63;;;4.57;;
66707;SDS011;53622;0.000;0.000;2023-08-17T09:26:25;7.93;;;4.03;;
66707;SDS011;53622;0.000;0.000;2023-08-17T09:29:00;15.38;;;5.15;;
66707;SDS011;53622;0.000;0.000;2023-08-17T09:31:44;8.02;;;3.75;;
66707;SDS011;53622;0.000;0.000;2023-08-17T09:34:14;15.27;;;4.45;;
66707;SDS011;53622;0.000;0.000;2023-08-17T09:36:46;10.45;;;4.30;;
66707;SDS011;53622;0.000;0.000;2023-08-17T09:39:16;8.30;;;3.97;;
66707;SDS011;53622;0.000;0.000;2023-08-17T09:41:46;11.32;;;4.00;;
66707;SDS011;53622;0.000;0.000;2023-08-17T09:44:16;8.48;;;3.80;;
66707;SDS011;53622;0.000;0.000;2023-08-17T09:46:46;11.43;;;3.75;;
66707;SDS011;53622;0.000;0.000;2023-08-17T09:49:17;7.65;;;3.40;;
66707;SDS011;53622;0.000;0.000;2023-08-17T09:51:49;6.53;;;3.35;;
66707;SDS011;53622;0.000;0.000;2023-08-17T09:54:20;7.50;;;3.35;;
66707;SDS011;53622;0.000;0.000;2023-08-17T09:56:51;7.47;;;3.35;;
66707;SDS011;53622;0.000;0.000;2023-08-17T09:59:20;9.18;;;3.72;;
66707;SDS011;53622;0.000;0.000;2023-08-17T10:01:51;7.75;;;3.75;;
66707;SDS011;53622;0.000;0.000;2023-08-17T10:04:23;6.60;;;3.15;;
66707;SDS011;53622;0.000;0.000;2023-08-17T10:06:56;5.35;;;3.13;;
66707;SDS011;53622;0.000;0.000;2023-08-17T10:09:31;7.57;;;3.35;;
66707;SDS011;53622;0.000;0.000;2023-08-17T10:12:06;9.52;;;3.13;;
66707;SDS011;53622;0.000;0.000;2023-08-17T10:14:42;5.65;;;3.13;;
66707;SDS011;53622;0.000;0.000;2023-08-17T10:17:19;5.63;;;2.67;;
66707;SDS011;53622;0.000;0.000;2023-08-17T10:19:56;5.80;;;2.65;;
66707;SDS011;53622;0.000;0.000;2023-08-17T10:22:30;5.57;;;3.10;;
66707;SDS011;53622;0.000;0.000;2023-08-17T10:25:06;7.05;;;3.13;;
66707;SDS011;53622;0.000;0.000;2023-08-17T10:27:39;4.32;;;2.60;;
66707;SDS011;53622;0.000;0.000;2023-08-17T10:30:10;7.00;;;3.25;;
66707;SDS011;53622;0.000;0.000;2023-08-17T10:32:40;5.78;;;3.17;;
66707;SDS011;53622;0.000;0.000;2023-08-17T10:35:12;8.50;;;2.53;;
66707;SDS011;53622;0.000;0.000;2023-08-17T10:37:44;4.18;;;2.60;;
66707;SDS011;53622;0.000;0.000;2023-08-17T10:40:14;4.22;;;2.70;;
66707;SDS011;53622;0.000;0.000;2023-08-17T10:42:44;5.18;;;2.30;;
66707;SDS011;53622;0.000;0.000;2023-08-17T10:45:25;6.18;;;2.92;;
66707;SDS011;53622;0.000;0.000;2023-08-17T10:51:03;4.90;;;2.50;;
66707;SDS011;53622;0.000;0.000;2023-08-17T10:53:38;5.00;;;2.92;;
66707;SDS011;53622;0.000;0.000;2023-08-17T10:56:11;5.13;;;2.55;;
66707;SDS011;53622;0.000;0.000;2023-08-17T10:58:44;4.28;;;2.60;;
66707;SDS011;53622;0.000;0.000;2023-08-17T11:01:13;4.63;;;2.63;;
66707;SDS011;53622;0.000;0.000;2023-08-17T11:03:57;5.07;;;2.30;;
66707;SDS011;53622;0.000;0.000;2023-08-17T11:06:38;4.20;;;2.40;;
66707;SDS011;53622;0.000;0.000;2023-08-17T11:09:09;3.83;;;2.47;;
66707;SDS011;53622;0.000;0.000;2023-08-17T11:11:39;2.95;;;2.47;;
66707;SDS011;53622;0.000;0.000;2023-08-17T11:14:08;4.05;;;2.58;;
66707;SDS011;53622;0.000;0.000;2023-08-17T11:16:37;5.18;;;2.40;;
66707;SDS011;53622;0.000;0.000;2023-08-17T11:19:07;4.90;;;2.50;;
66707;SDS011;53622;0.000;0.000;2023-08-17T11:21:39;3.35;;;2.40;;
66707;SDS011;53622;0.000;0.000;2023-08-17T11:24:11;4.38;;;2.40;;
66707;SDS011;53622;0.000;0.000;2023-08-17T11:26:41;3.92;;;2.40;;
66707;SDS011;53622;0.000;0.000;2023-08-17T11:29:10;5.07;;;2.40;;
66707;SDS011;53622;0.000;0.000;2023-08-17T11:31:39;2.97;;;2.30;;
66707;SDS011;53622;0.000;0.000;2023-08-17T11:34:13;5.35;;;2.70;;
66707;SDS011;53622;0.000;0.000;2023-08-17T11:36:43;2.75;;;2.50;;
66707;SDS011;53622;0.000;0.000;2023-08-17T11:39:13;3.00;;;2.30;;
66707;SDS011;53622;0.000;0.000;2023-08-17T11:41:43;3.13;;;2.35;;
66707;SDS011;53622;0.000;0.000;2023-08-17T11:44:12;3.67;;;2.67;;
66707;SDS011;53622;0.000;0.000;2023-08-17T11:46:42;3.10;;;2.58;;
66707;SDS011;53622;0.000;0.000;2023-08-17T11:49:12;2.78;;;2.33;;
66707;SDS011;53622;0.000;0.000;2023-08-17T11:51:41;3.67;;;2.55;;
66707;SDS011;53622;0.000;0.000;2023-08-17T11:54:10;3.08;;;2.17;;
66707;SDS011;53622;0.000;0.000;2023-08-17T11:56:41;5.45;;;2.50;;
66707;SDS011;53622;0.000;0.000;2023-08-17T11:59:11;5.65;;;2.40;;
66707;SDS011;53622;0.000;0.000;2023-08-17T12:01:45;3.25;;;2.10;;
66707;SDS011;53622;0.000;0.000;2023-08-17T12:04:17;3.53;;;2.20;;
66707;SDS011;53622;0.000;0.000;2023-08-17T12:06:49;4.72;;;2.20;;
66707;SDS011;53622;0.000;0.000;2023-08-17T12:09:19;4.85;;;2.25;;
66707;SDS011;53622;0.000;0.000;2023-08-17T12:11:56;3.53;;;2.10;;
66707;SDS011;53622;0.000;0.000;2023-08-17T12:14:28;4.28;;;2.20;;
66707;SDS011;53622;0.000;0.000;2023-08-17T12:16:58;5.07;;;2.47;;
66707;SDS011;53622;0.000;0.000;2023-08-17T12:19:29;3.08;;;2.08;;
66707;SDS011;53622;0.000;0.000;2023-08-17T12:21:58;3.80;;;1.95;;
66707;SDS011;53622;0.000;0.000;2023-08-17T12:24:27;2.78;;;2.00;;
66707;SDS011;53622;0.000;0.000;2023-08-17T12:26:59;3.92;;;1.90;;
66707;SDS011;53622;0.000;0.000;2023-08-17T12:29:30;3.28;;;2.30;;
66707;SDS011;53622;0.000;0.000;2023-08-17T12:32:00;3.92;;;2.40;;
66707;SDS011;53622;0.000;0.000;2023-08-17T12:34:30;3.08;;;2.13;;
66707;SDS011;53622;0.000;0.000;2023-08-17T12:36:59;4.55;;;2.13;;
66707;SDS011;53622;0.000;0.000;2023-08-17T12:39:29;2.45;;;1.90;;
66707;SDS011;53622;0.000;0.000;2023-08-17T12:42:00;2.53;;;2.30;;
66707;SDS011;53622;0.000;0.000;2023-08-17T12:44:30;2.88;;;2.13;;
66707;SDS011;53622;0.000;0.000;2023-08-17T12:47:00;2.45;;;2.00;;
66707;SDS011;53622;0.000;0.000;2023-08-17T12:49:29;4.13;;;2.13;;
66707;SDS011;53622;0.000;0.000;2023-08-17T12:51:59;1.90;;;1.60;;
66707;SDS011;53622;0.000;0.000;2023-08-17T12:54:28;3.45;;;1.90;;
66707;SDS011;53622;0.000;0.000;2023-08-17T12:56:58;3.10;;;2.10;;
66707;SDS011;53622;0.000;0.000;2023-08-17T12:59:32;4.00;;;2.30;;
66707;SDS011;53622;0.000;0.000;2023-08-17T13:02:01;3.08;;;1.75;;
66707;SDS011;53622;0.000;0.000;2023-08-17T13:04:31;5.93;;;2.03;;
66707;SDS011;53622;0.000;0.000;2023-08-17T13:07:00;3.80;;;1.98;;
66707;SDS011;53622;0.000;0.000;2023-08-17T13:09:30;5.10;;;2.00;;
66707;SDS011;53622;0.000;0.000;2023-08-17T13:11:59;4.65;;;2.08;;
66707;SDS011;53622;0.000;0.000;2023-08-17T13:14:29;4.03;;;2.33;;
66707;SDS011;53622;0.000;0.000;2023-08-17T13:17:00;2.75;;;2.08;;
66707;SDS011;53622;0.000;0.000;2023-08-17T13:19:29;2.75;;;2.05;;
66707;SDS011;53622;0.000;0.000;2023-08-17T13:21:59;2.70;;;1.98;;
66707;SDS011;53622;0.000;0.000;2023-08-17T13:24:30;4.03;;;2.10;;
66707;SDS011;53622;0.000;0.000;2023-08-17T13:26:59;2.20;;;1.77;;
66707;SDS011;53622;0.000;0.000;2023-08-17T13:29:28;4.07;;;2.22;;
66707;SDS011;53622;0.000;0.000;2023-08-17T13:31:57;4.38;;;1.90;;
66707;SDS011;53622;0.000;0.000;2023-08-17T13:34:28;3.53;;;1.77;;
66707;SDS011;53622;0.000;0.000;2023-08-17T13:36:58;2.35;;;1.75;;
66707;SDS011;53622;0.000;0.000;2023-08-17T13:39:27;4.90;;;2.00;;
66707;SDS011;53622;0.000;0.000;2023-08-17T13:41:57;2.35;;;2.05;;
66707;SDS011;53622;0.000;0.000;2023-08-17T13:44:26;4.07;;;2.00;;
66707;SDS011;53622;0.000;0.000;2023-08-17T13:46:55;2.50;;;2.03;;
66707;SDS011;53622;0.000;0.000;2023-08-17T13:49:26;2.35;;;1.90;;
66707;SDS011;53622;0.000;0.000;2023-08-17T13:51:56;2.92;;;2.08;;
66707;SDS011;53622;0.000;0.000;2023-08-17T13:54:25;2.10;;;1.90;;
66707;SDS011;53622;0.000;0.000;2023-08-17T13:56:55;3.05;;;2.03;;
66707;SDS011;53622;0.000;0.000;2023-08-17T13:59:25;2.85;;;2.10;;
66707;SDS011;53622;0.000;0.000;2023-08-17T14:01:54;3.60;;;1.98;;
66707;SDS011;53622;0.000;0.000;2023-08-17T14:04:24;4.93;;;2.05;;
66707;SDS011;53622;0.000;0.000;2023-08-17T14:06:54;3.90;;;2.15;;
66707;SDS011;53622;0.000;0.000;2023-08-17T14:09:24;3.08;;;1.80;;
66707;SDS011;53622;0.000;0.000;2023-08-17T14:11:53;5.80;;;2.00;;
66707;SDS011;53622;0.000;0.000;2023-08-17T14:14:23;3.38;;;1.77;;
66707;SDS011;53622;0.000;0.000;2023-08-17T14:16:52;2.97;;;1.90;;
66707;SDS011;53622;0.000;0.000;2023-08-17T14:19:22;5.75;;;2.17;;
66707;SDS011;53622;0.000;0.000;2023-08-17T14:21:53;2.85;;;1.50;;
66707;SDS011;53622;0.000;0.000;2023-08-17T14:24:22;3.42;;;1.92;;
66707;SDS011;53622;0.000;0.000;2023-08-17T14:26:51;3.15;;;1.80;;
66707;SDS011;53622;0.000;0.000;2023-08-17T14:29:21;4.65;;;1.80;;
66707;SDS011;53622;0.000;0.000;2023-08-17T14:31:50;3.00;;;1.80;;
66707;SDS011;53622;0.000;0.000;2023-08-17T14:34:22;2.08;;;1.70;;
66707;SDS011;53622;0.000;0.000;2023-08-17T14:36:53;3.30;;;1.80;;
66707;SDS011;53622;0.000;0.000;2023-08-17T14:39:22;3.38;;;1.80;;
66707;SDS011;53622;0.000;0.000;2023-08-17T14:41:51;4.20;;;1.90;;
66707;SDS011;53622;0.000;0.000;2023-08-17T14:44:20;3.65;;;1.80;;
66707;SDS011;53622;0.000;0.000;2023-08-17T14:46:50;2.47;;;1.85;;
66707;SDS011;53622;0.000;0.000;2023-08-17T14:49:19;2.70;;;2.10;;
66707;SDS011;53622;0.000;0.000;2023-08-17T14:51:54;3.45;;;1.80;;
66707;SDS011;53622;0.000;0.000;2023-08-17T14:54:26;2.25;;;1.80;;
66707;SDS011;53622;0.000;0.000;2023-08-17T14:56:58;3.10;;;1.98;;
66707;SDS011;53622;0.000;0.000;2023-08-17T14:59:28;3.53;;;2.00;;
66707;SDS011;53622;0.000;0.000;2023-08-17T15:01:57;5.35;;;1.90;;
66707;SDS011;53622;0.000;0.000;2023-08-17T15:04:27;3.38;;;1.73;;
66707;SDS011;53622;0.000;0.000;2023-08-17T15:06:57;3.70;;;1.75;;
66707;SDS011;53622;0.000;0.000;2023-08-17T15:09:27;4.93;;;2.10;;
66707;SDS011;53622;0.000;0.000;2023-08-17T15:11:57;1.98;;;1.73;;
66707;SDS011;53622;0.000;0.000;2023-08-17T15:14:32;2.67;;;1.80;;
66707;SDS011;53622;0.000;0.000;2023-08-17T15:17:01;3.15;;;2.03;;
66707;SDS011;53622;0.000;0.000;2023-08-17T15:19:31;3.85;;;1.80;;
66707;SDS011;53622;0.000;0.000;2023-08-17T15:22:09;3.50;;;1.98;;